Time;durP1;ratioP1;P1;durP2;ratioP2;P2;SDS_P1;SDS_P2;PMS_P1;PMS_P2;Temp;Humidity;BMP_temperature;BMP_pressure;BME280_temperature;BME280_humidity;BME280_pressure;Samples;Min_cycle;Max_cycle;Signal;HPM_P1;HPM_P2
2023/09/06 00:03:27;;;;;;;0.00;0.00;;;;;;;-145.06;100.00;39854.66;10423962;28;20381;-67
2023/09/06 00:08:27;;;;;;;0.00;0.00;;;;;;;-145.06;100.00;39846.59;10433883;28;20028;-66
2023/09/06 00:13:27;;;;;;;0.10;0.10;;;;;;;-145.06;100.00;39866.78;10428106;28;20013;-67
2023/09/06 00:18:28;;;;;;;0.10;0.10;;;;;;;-145.06;100.00;39858.69;10438133;28;20269;-67
2023/09/06 00:23:28;;;;;;;0.10;0.10;;;;;;;-145.06;100.00;39858.69;10439227;28;21069;-67
2023/09/06 00:28:28;;;;;;;0.10;0.10;;;;;;;-145.06;100.00;39880.91;10436348;28;20033;-68
2023/09/06 00:33:34;;;;;;;0.00;0.00;;;;;;;-145.06;100.00;39903.09;10420524;28;20013;-67
2023/09/06 00:38:35;;;;;;;0.10;0.10;;;;;;;-145.06;100.00;39882.91;10429135;28;20027;-67
2023/09/06 00:43:35;;;;;;;0.10;0.10;;;;;;;-145.06;100.00;39893.00;10441679;28;20009;-67
2023/09/06 00:48:36;;;;;;;0.10;0.10;;;;;;;-145.06;100.00;39899.06;10430816;28;20083;-68
2023/09/06 00:53:37;;;;;;;0.10;0.10;;;;;;;-145.06;100.00;39893.00;10429437;28;20022;-66
2023/09/06 00:58:38;;;;;;;0.10;0.10;;;;;;;-145.06;100.00;39872.81;10442695;28;20029;-67
2023/09/06 01:03:41;;;;;;;0.10;0.10;;;;;;;-145.06;100.00;39925.28;10442362;28;20083;-66
2023/09/06 01:08:51;;;;;;;0.10;0.10;;;;;;;-145.06;100.00;39897.03;10424094;28;20049;-67
2023/09/06 01:13:54;;;;;;;0.10;0.10;;;;;;;-145.06;100.00;39870.81;10430897;28;20057;-67
2023/09/06 01:18:55;;;;;;;0.10;0.10;;;;;;;-145.06;100.00;39895.03;10440244;28;20040;-67
2023/09/06 01:23:57;;;;;;;0.10;0.10;;;;;;;-145.06;100.00;39886.94;10435978;28;20086;-67
2023/09/06 01:28:58;;;;;;;0.10;0.10;;;;;;;-145.06;100.00;39878.88;10434035;28;20029;-67
2023/09/06 01:33:58;;;;;;;0.10;0.10;;;;;;;-145.06;100.00;39895.03;10430242;28;20017;-67
2023/09/06 01:38:58;;;;;;;0.10;0.10;;;;;;;-145.06;100.00;39895.03;10437716;28;20492;-66
2023/09/06 01:44:00;;;;;;;0.10;0.10;;;;;;;-145.06;100.00;39911.16;10434672;28;20074;-66
2023/09/06 01:49:00;;;;;;;0.10;0.10;;;;;;;-145.06;100.00;39955.56;10429544;28;20116;-67
2023/09/06 01:54:04;;;;;;;0.10;0.10;;;;;;;-145.06;100.00;39969.69;10430377;28;20027;-67
2023/09/06 01:59:04;;;;;;;0.10;0.10;;;;;;;-145.06;100.00;39979.78;10429235;28;20057;-68
2023/09/06 02:04:06;;;;;;;0.10;0.10;;;;;;;-145.06;100.00;39937.41;10435428;28;20534;-67
2023/09/06 02:09:06;;;;;;;0.10;0.10;;;;;;;-145.06;100.00;39941.44;10433038;28;20017;-66
2023/09/06 02:14:06;;;;;;;0.10;0.10;;;;;;;-145.06;100.00;39939.41;10432234;28;20075;-66
2023/09/06 02:19:06;;;;;;;0.10;0.10;;;;;;;-145.06;100.00;39963.63;10426230;28;20026;-66
2023/09/06 02:24:08;;;;;;;0.10;0.10;;;;;;;-145.06;100.00;39947.50;10431227;28;20256;-66
2023/09/06 02:29:10;;;;;;;0.10;0.10;;;;;;;-145.06;100.00;39977.75;10429178;28;20482;-66
2023/09/06 02:34:10;;;;;;;0.10;0.10;;;;;;;-145.06;100.00;39955.56;10429428;28;20104;-66
2023/09/06 02:39:11;;;;;;;0.10;0.10;;;;;;;-145.06;100.00;39991.88;10423036;28;20025;-66
2023/09/06 02:44:13;;;;;;;0.10;0.10;;;;;;;-145.06;100.00;39995.91;10427832;28;20096;-67
2023/09/06 02:49:13;;;;;;;0.10;0.10;;;;;;;-145.06;100.00;39981.78;10435723;28;20100;-67
2023/09/06 02:54:17;;;;;;;0.10;0.10;;;;;;;-145.06;100.00;40034.25;10440638;28;20201;-66
2023/09/06 02:59:19;;;;;;;0.10;0.10;;;;;;;-145.06;100.00;40042.34;10448835;22;20037;-69
2023/09/06 03:04:19;;;;;;;0.10;0.10;;;;;;;-145.06;100.00;40020.13;10480913;28;20396;-69
2023/09/06 03:09:28;;;;;;;0.10;0.10;;;;;;;-145.06;100.00;40056.47;10479261;28;20025;-70
2023/09/06 03:14:30;;;;;;;0.10;0.10;;;;;;;-145.06;100.00;40014.09;10461619;28;20706;-69
2023/09/06 03:19:33;;;;;;;0.00;0.00;;;;;;;-145.06;100.00;40060.50;10476943;28;20032;-69
2023/09/06 03:24:34;;;;;;;0.10;0.10;;;;;;;-145.06;100.00;40030.22;10480702;28;20028;-68
2023/09/06 03:29:37;;;;;;;0.10;0.10;;;;;;;-145.06;100.00;40026.19;10475839;28;20035;-68
2023/09/06 03:34:41;;;;;;;0.10;0.10;;;;;;;-145.06;100.00;40012.06;10484941;28;20025;-68
2023/09/06 03:39:42;;;;;;;0.10;0.10;;;;;;;-145.06;100.00;40022.16;10486983;28;20426;-67
2023/09/06 03:44:43;;;;;;;0.10;0.10;;;;;;;-145.06;100.00;39975.75;10466261;28;20021;-69
2023/09/06 03:49:45;;;;;;;0.10;0.10;;;;;;;-145.06;100.00;40030.22;10468495;28;20021;-69
2023/09/06 03:54:45;;;;;;;0.10;0.10;;;;;;;-145.06;100.00;40010.03;10470451;28;20029;-68
2023/09/06 03:59:45;;;;;;;0.10;0.10;;;;;;;-145.06;100.00;39979.78;10485410;28;20078;-67
2023/09/06 04:04:45;;;;;;;0.20;0.20;;;;;;;-145.06;100.00;40032.25;10458545;28;20103;-69
2023/09/06 04:09:46;;;;;;;0.10;0.10;;;;;;;-145.06;100.00;39993.91;10480464;28;20099;-68
2023/09/06 04:14:46;;;;;;;0.10;0.10;;;;;;;-145.06;100.00;40020.13;10481369;28;20032;-68
2023/09/06 04:19:46;;;;;;;0.10;0.10;;;;;;;-145.06;100.00;39999.97;10482033;28;20021;-69
2023/09/06 04:24:47;;;;;;;0.10;0.10;;;;;;;-145.06;100.00;40038.31;10480860;28;20025;-68
2023/09/06 04:29:47;;;;;;;0.10;0.10;;;;;;;-145.06;100.00;40048.38;10481213;28;20477;-69
2023/09/06 04:34:47;;;;;;;0.10;0.10;;;;;;;-145.06;100.00;40032.25;10480899;28;20032;-68
2023/09/06 04:39:47;;;;;;;0.10;0.10;;;;;;;-145.06;100.00;40028.22;10474328;28;20527;-68
2023/09/06 04:44:48;;;;;;;0.10;0.10;;;;;;;-145.06;100.00;39957.59;10481911;28;20025;-68
2023/09/06 04:49:48;;;;;;;0.10;0.10;;;;;;;-145.06;100.00;39929.31;10471914;28;20112;-68
2023/09/06 04:54:48;;;;;;;0.10;0.10;;;;;;;-145.06;100.00;39911.16;10485276;28;20036;-67
2023/09/06 04:59:49;;;;;;;0.10;0.10;;;;;;;-145.06;100.00;39842.56;10484460;28;20639;-68
2023/09/06 05:04:50;;;;;;;0.10;0.10;;;;;;;-145.06;100.00;39709.38;10483071;28;20016;-69
2023/09/06 05:09:53;;;;;;;0.10;0.10;;;;;;;-145.06;100.00;39640.75;10486686;28;20036;-68
2023/09/06 05:14:54;;;;;;;0.10;0.10;;;;;;;-145.06;100.00;39604.44;10450648;28;20209;-69
2023/09/06 05:19:54;;;;;;;0.10;0.10;;;;;;;-145.06;100.00;39515.66;10455283;28;20025;-67
2023/09/06 05:24:55;;;;;;;0.10;0.10;;;;;;;-145.06;100.00;39356.25;10469474;28;20017;-68
2023/09/06 05:29:56;;;;;;;0.10;0.10;;;;;;;-145.06;100.00;39154.50;10476769;28;20170;-68
2023/09/06 05:34:56;;;;;;;0.00;0.00;;;;;;;-145.06;98.83;39015.28;10478390;28;20363;-68
2023/09/06 05:39:57;;;;;;;0.00;0.00;;;;;;;-145.06;91.20;38795.38;10466574;28;20017;-69
2023/09/06 05:44:57;;;;;;;0.00;0.00;;;;;;;-145.06;83.92;38531.09;10457564;28;20649;-69
2023/09/06 05:49:57;;;;;;;0.00;0.00;;;;;;;-145.06;76.09;38412.09;10445547;28;20652;-68
2023/09/06 05:54:58;;;;;;;0.10;0.10;;;;;;;-145.06;71.29;38204.31;10471600;28;20411;-67
2023/09/06 05:59:59;;;;;;;0.00;0.00;;;;;;;-145.06;68.75;38157.91;10470504;28;20021;-67
2023/09/06 06:04:59;;;;;;;0.10;0.10;;;;;;;-145.06;67.83;38028.81;10467182;28;20013;-69
2023/09/06 06:10:00;;;;;;;0.00;0.00;;;;;;;-145.06;68.31;37909.81;10474876;28;20020;-69
2023/09/06 06:15:00;;;;;;;0.00;0.00;;;;;;;-145.06;63.16;37825.13;10476936;28;20032;-69
2023/09/06 06:20:03;;;;;;;0.10;0.10;;;;;;;-145.06;63.46;37796.88;10476066;28;20097;-69
2023/09/06 06:25:05;;;;;;;0.00;0.00;;;;;;;-145.06;63.24;37790.81;10469521;28;20620;-68
2023/09/06 06:30:06;;;;;;;;;;;;;;;-145.06;63.48;37770.66;10463839;28;20150;-67
2023/09/06 06:35:08;;;;;;;0.10;0.10;;;;;;;-145.06;64.03;37651.66;10473006;28;19995;-68
2023/09/06 06:40:09;;;;;;;0.00;0.00;;;;;;;-145.06;62.12;37623.44;10461600;28;20059;-69
2023/09/06 06:45:10;;;;;;;0.00;0.00;;;;;;;-145.06;62.14;37548.81;10465067;28;20067;-68
2023/09/06 06:50:10;;;;;;;0.00;0.00;;;;;;;-145.06;60.44;37421.75;10465701;28;20566;-68
2023/09/06 06:55:10;;;;;;;0.10;0.10;;;;;;;-145.06;60.42;37347.13;10460782;28;20501;-69
2023/09/06 07:00:11;;;;;;;0.00;0.00;;;;;;;-145.06;61.14;37286.63;10467996;28;20074;-69
2023/09/06 07:05:12;;;;;;;0.10;0.10;;;;;;;-145.06;60.63;37234.19;10458820;28;20033;-67
2023/09/06 07:10:13;;;;;;;0.10;0.10;;;;;;;-145.06;59.65;37127.31;10470401;28;20021;-69
2023/09/06 07:15:14;;;;;;;;;;;;;;;-145.06;59.13;37050.69;10479868;28;20040;-67
2023/09/06 07:20:14;;;;;;;0.10;0.10;;;;;;;-145.06;58.34;36990.19;10456794;28;19919;-67
2023/09/06 07:25:15;;;;;;;0.10;0.10;;;;;;;-145.06;58.54;36893.41;10450736;28;20008;-68
2023/09/06 07:30:15;;;;;;;0.10;0.10;;;;;;;-145.06;59.04;36792.59;10468636;28;20021;-69
2023/09/06 07:35:15;;;;;;;;;;;;;;;-145.06;56.11;36594.97;10477171;28;20104;-68
2023/09/06 07:40:16;;;;;;;0.10;0.10;;;;;;;-145.06;55.98;36568.78;10474373;28;19909;-68
2023/09/06 07:45:16;;;;;;;0.10;0.10;;;;;;;-145.06;56.45;36459.88;10468717;28;20021;-68
2023/09/06 07:50:17;;;;;;;0.10;0.10;;;;;;;-145.06;56.17;36312.72;10469143;28;20016;-69
2023/09/06 07:55:17;;;;;;;0.10;0.10;;;;;;;-145.06;55.43;36217.94;10470525;28;20034;-68
2023/09/06 08:00:18;;;;;;;0.10;0.10;;;;;;;-145.06;55.85;36026.44;10474417;28;20083;-69
2023/09/06 08:05:18;;;;;;;0.10;0.10;;;;;;;-145.06;56.70;35881.28;10465138;28;20402;-68
2023/09/06 08:10:18;;;;;;;0.10;0.10;;;;;;;-145.06;56.24;35883.28;10466989;28;20032;-67
2023/09/06 08:15:19;;;;;;;0.10;0.10;;;;;;;-145.06;51.91;35855.06;10466168;28;20017;-69
2023/09/06 08:20:19;;;;;;;0.10;0.10;;;;;;;-145.06;52.12;36217.94;10472526;28;20378;-71
2023/09/06 08:25:19;;;;;;;0.10;0.10;;;;;;;-145.06;56.13;36244.16;10455901;28;20497;-68
2023/09/06 08:30:22;;;;;;;0.10;0.10;;;;;;;-145.06;54.45;36401.41;10465417;28;20028;-69
2023/09/06 08:35:23;;;;;;;0.10;0.10;;;;;;;-145.06;57.70;36465.94;10460239;28;20036;-67
2023/09/06 08:40:23;;;;;;;0.10;0.10;;;;;;;-145.06;55.22;36322.78;10474545;28;20487;-68
2023/09/06 08:45:24;;;;;;;;;;;;;;;-145.06;54.79;36173.59;10474136;28;20043;-68
2023/09/06 08:50:26;;;;;;;0.10;0.10;;;;;;;-145.06;53.94;36002.22;10481265;28;20399;-66
2023/09/06 08:55:27;;;;;;;0.10;0.10;;;;;;;-145.06;49.83;36361.09;10464545;28;20139;-70
2023/09/06 09:00:27;;;;;;;0.00;0.00;;;;;;;-145.06;54.82;36397.38;10469107;28;20028;-66
2023/09/06 09:05:27;;;;;;;0.00;0.00;;;;;;;-145.06;52.07;36413.53;10453525;28;20013;-68
2023/09/06 09:10:31;;;;;;;0.10;0.10;;;;;;;-145.06;52.13;36546.59;10436860;22;20045;-63
2023/09/06 09:15:33;;;;;;;0.10;0.10;;;;;;;-145.06;55.93;36594.97;10407880;28;20196;-64
2023/09/06 09:20:34;;;;;;;0.03;0.03;;;;;;;-145.06;54.27;36526.44;10432528;28;20059;-65
2023/09/06 09:25:35;;;;;;;0.00;0.00;;;;;;;-145.06;50.49;36518.38;10439964;28;20046;-64
2023/09/06 09:30:36;;;;;;;0.10;0.10;;;;;;;-145.06;54.02;36584.91;10446101;28;20025;-65
2023/09/06 09:35:37;;;;;;;0.00;0.00;;;;;;;-145.06;52.78;36546.59;10440415;28;20021;-65
2023/09/06 09:40:37;;;;;;;0.00;0.00;;;;;;;-145.06;51.01;36530.47;10436276;28;20056;-65
2023/09/06 09:45:43;;;;;;;0.10;0.10;;;;;;;-145.06;53.15;36494.16;10438519;28;20094;-64
2023/09/06 09:50:46;;;;;;;0.10;0.10;;;;;;;-145.06;51.62;36597.00;10429063;28;20021;-65
2023/09/06 09:55:47;;;;;;;0.10;0.10;;;;;;;-145.06;49.19;36540.53;10422965;28;20108;-64
2023/09/06 10:00:50;;;;;;;0.07;0.07;;;;;;;-145.06;47.91;36500.22;10421244;28;20435;-65
2023/09/06 10:05:51;;;;;;;0.10;0.10;;;;;;;-145.06;49.86;36582.88;10432367;28;20263;-65
2023/09/06 10:10:51;;;;;;;0.10;0.10;;;;;;;-145.06;46.87;36631.28;10414743;28;20029;-66
2023/09/06 10:15:53;;;;;;;0.00;0.00;;;;;;;-145.06;50.10;36645.38;10430801;28;20033;-66
2023/09/06 10:20:54;;;;;;;0.00;0.00;;;;;;;-145.06;49.69;36546.59;10428493;28;20029;-65
2023/09/06 10:25:56;;;;;;;0.00;0.00;;;;;;;-145.06;49.27;36486.09;10438734;28;20382;-65
2023/09/06 10:31:07;;;;;;;0.10;0.10;;;;;;;-145.06;46.47;36399.41;10415453;28;20021;-65
2023/09/06 10:36:15;;;;;;;0.00;0.00;;;;;;;-145.06;46.39;36532.47;10430794;28;20048;-66
2023/09/06 10:41:17;;;;;;;0.10;0.10;;;;;;;-145.06;47.20;36522.41;10423386;28;20048;-66
2023/09/06 10:46:26;;;;;;;0.00;0.00;;;;;;;-145.06;49.74;36447.78;10439055;28;20108;-66
2023/09/06 10:51:27;;;;;;;0.00;0.00;;;;;;;-145.06;49.47;36369.16;10434781;28;20066;-66
2023/09/06 10:56:28;;;;;;;0.10;0.10;;;;;;;-145.06;47.28;36300.63;10447759;28;20071;-65
2023/09/06 11:01:28;;;;;;;0.10;0.10;;;;;;;-145.06;47.83;36260.28;10440219;28;20431;-66
2023/09/06 11:06:49;;;;;;;0.00;0.00;;;;;;;-145.06;47.28;36282.47;10440095;28;20417;-65
2023/09/06 11:11:52;;;;;;;0.00;0.00;;;;;;;-145.06;43.44;36423.59;10440293;28;20024;-66
2023/09/06 11:16:52;;;;;;;0.10;0.10;;;;;;;-145.06;45.15;36546.59;10437077;28;20037;-66
2023/09/06 11:22:10;;;;;;;0.10;0.10;;;;;;;-145.06;47.83;36445.78;10432176;28;20039;-65
2023/09/06 11:27:24;;;;;;;0.00;0.00;;;;;;;-145.06;44.70;36427.63;10430196;28;20028;-66
2023/09/06 11:32:27;;;;;;;0.10;0.10;;;;;;;-145.06;48.94;36431.66;10419576;28;20089;-65
2023/09/06 11:37:28;;;;;;;0.00;0.00;;;;;;;-145.06;43.46;36409.47;10432338;28;20028;-65
2023/09/06 11:42:31;;;;;;;0.00;0.00;;;;;;;-145.06;43.90;36502.22;10411594;28;20025;-66
2023/09/06 11:47:32;;;;;;;0.00;0.00;;;;;;;-145.06;43.89;36568.78;10435862;28;20019;-66
2023/09/06 11:52:32;;;;;;;0.10;0.10;;;;;;;-145.06;41.84;36597.00;10432189;28;20493;-65
2023/09/06 11:57:37;;;;;;;0.10;0.10;;;;;;;-145.06;43.23;36599.00;10432557;28;20033;-65
2023/09/06 12:02:37;;;;;;;0.10;0.10;;;;;;;-145.06;44.72;36566.75;10403578;28;20109;-66
2023/09/06 12:07:38;;;;;;;0.00;0.00;;;;;;;-145.06;45.46;36482.06;10417976;28;20026;-66
2023/09/06 12:12:42;;;;;;;0.10;0.10;;;;;;;-145.06;42.04;36651.44;10433619;28;20106;-66
2023/09/06 12:17:47;;;;;;;0.10;0.10;;;;;;;-145.06;41.86;36675.63;10435119;28;20334;-66
2023/09/06 12:22:47;;;;;;;0.00;0.00;;;;;;;-145.06;41.79;36669.59;10441119;28;20253;-65
2023/09/06 12:27:48;;;;;;;0.00;0.00;;;;;;;-145.06;42.14;36683.69;10433099;28;20041;-65
2023/09/06 12:32:48;;;;;;;0.10;0.10;;;;;;;-145.06;40.96;36671.59;10438688;28;20053;-66
2023/09/06 12:37:48;;;;;;;0.00;0.00;;;;;;;-145.06;42.00;36667.56;10445602;28;20104;-65
2023/09/06 12:42:48;;;;;;;0.10;0.10;;;;;;;-145.06;41.16;36687.72;10446918;28;20052;-66
2023/09/06 12:47:49;;;;;;;0.10;0.10;;;;;;;-145.06;42.19;36736.13;10435839;28;20111;-68
2023/09/06 12:52:49;;;;;;;0.00;0.00;;;;;;;-145.06;42.86;36717.97;10436633;28;20201;-66
2023/09/06 12:57:50;;;;;;;0.10;0.10;;;;;;;-145.06;42.41;36720.00;10430999;28;20052;-66
2023/09/06 13:02:50;;;;;;;0.10;0.10;;;;;;;-145.06;42.44;36730.06;10438525;28;20021;-67
2023/09/06 13:07:51;;;;;;;0.00;0.00;;;;;;;-145.06;43.14;36746.22;10420793;28;20098;-67
2023/09/06 13:12:51;;;;;;;0.00;0.00;;;;;;;-145.06;44.11;36707.91;10440661;28;20025;-67
2023/09/06 13:17:52;;;;;;;0.00;0.00;;;;;;;-145.06;43.39;36685.72;10441704;28;20033;-67
2023/09/06 13:22:52;;;;;;;0.10;0.10;;;;;;;-145.06;42.38;36715.97;10428676;28;20037;-67
2023/09/06 13:27:52;;;;;;;0.10;0.10;;;;;;;-145.06;41.76;36724.03;10440356;28;20083;-67
2023/09/06 13:32:52;;;;;;;0.00;0.00;;;;;;;-145.06;44.51;36722.00;10439354;28;20021;-67
2023/09/06 13:37:53;;;;;;;0.10;0.10;;;;;;;-145.06;42.94;36736.13;10447190;28;20116;-67
2023/09/06 13:42:53;;;;;;;0.10;0.10;;;;;;;-145.06;43.46;36673.63;10427345;28;21026;-67
2023/09/06 13:47:53;;;;;;;0.10;0.10;;;;;;;-145.06;43.52;36699.81;10430876;28;20024;-66
2023/09/06 13:52:53;;;;;;;0.10;0.10;;;;;;;-145.06;42.35;36701.84;10446766;28;20039;-67
2023/09/06 13:57:54;;;;;;;0.00;0.00;;;;;;;-145.06;42.41;36707.91;10444587;28;20477;-66
2023/09/06 14:02:54;;;;;;;0.10;0.10;;;;;;;-145.06;44.33;36703.88;10431630;28;20545;-66
2023/09/06 14:07:54;;;;;;;0.10;0.10;;;;;;;-145.06;42.81;36665.56;10435121;28;20482;-66
2023/09/06 14:12:54;;;;;;;0.10;0.10;;;;;;;-145.06;41.32;36744.19;10420842;28;20266;-66
2023/09/06 14:17:55;;;;;;;0.10;0.10;;;;;;;-145.06;43.10;36734.09;10438405;28;20021;-67
2023/09/06 14:22:55;;;;;;;0.00;0.00;;;;;;;-145.06;46.00;36703.88;10427981;28;20549;-67
2023/09/06 14:27:56;;;;;;;0.10;0.10;;;;;;;-145.06;43.98;36752.25;10418609;28;20025;-67
2023/09/06 14:32:56;;;;;;;0.00;0.00;;;;;;;-145.06;45.31;36748.22;10433017;28;20059;-66
2023/09/06 14:37:57;;;;;;;0.10;0.10;;;;;;;-145.06;44.30;36754.28;10439875;28;20014;-66
2023/09/06 14:42:58;;;;;;;0.00;0.00;;;;;;;-145.06;46.60;36734.09;10448076;28;20075;-67
2023/09/06 14:47:58;;;;;;;0.00;0.00;;;;;;;-145.06;45.49;36768.38;10443489;28;20031;-67
2023/09/06 14:52:59;;;;;;;0.00;0.00;;;;;;;-145.06;45.22;36790.56;10427392;28;20027;-66
2023/09/06 14:58:01;;;;;;;0.10;0.10;;;;;;;-145.06;47.23;36812.75;10448752;28;20078;-66
2023/09/06 15:03:01;;;;;;;0.00;0.00;;;;;;;-145.06;49.41;36832.91;10432145;28;20024;-66
2023/09/06 15:08:02;;;;;;;0.10;0.10;;;;;;;-145.06;47.71;36851.06;10450084;22;20048;-68
2023/09/06 15:13:04;;;;;;;0.00;0.00;;;;;;;-145.06;47.90;36826.88;10446307;28;20283;-68
2023/09/06 15:18:05;;;;;;;0.00;0.00;;;;;;;-145.06;50.29;36941.78;10464108;28;20037;-66
2023/09/06 15:23:05;;;;;;;0.00;0.00;;;;;;;-145.06;52.01;36943.81;10476899;28;20023;-67
2023/09/06 15:28:05;;;;;;;0.10;0.10;;;;;;;-145.06;51.81;36986.16;10474056;28;20038;-67
2023/09/06 15:33:06;;;;;;;0.10;0.10;;;;;;;-145.06;51.40;36961.97;10475117;28;20025;-69
2023/09/06 15:38:07;;;;;;;0.10;0.10;;;;;;;-145.06;50.99;36961.97;10467916;28;20086;-67
2023/09/06 15:43:07;;;;;;;0.00;0.00;;;;;;;-145.06;52.55;37046.66;10455859;28;20029;-68
2023/09/06 15:48:08;;;;;;;0.10;0.10;;;;;;;-145.06;51.50;37072.88;10477073;28;20025;-68
2023/09/06 15:53:08;;;;;;;0.00;0.00;;;;;;;-145.06;55.59;37093.03;10491429;28;20267;-67
2023/09/06 15:58:09;;;;;;;0.10;0.10;;;;;;;-145.06;52.72;37121.28;10491910;28;20065;-67
2023/09/06 16:03:09;;;;;;;0.10;0.10;;;;;;;-145.06;53.49;37066.81;10484451;28;20021;-68
2023/09/06 16:08:10;;;;;;;0.10;0.10;;;;;;;-145.06;53.56;37109.16;10484190;28;20017;-68
2023/09/06 16:13:10;;;;;;;0.00;0.00;;;;;;;-145.06;52.80;37127.31;10488461;28;20627;-68
2023/09/06 16:18:10;;;;;;;0.00;0.00;;;;;;;-145.06;51.66;37129.34;10488391;28;20032;-69
2023/09/06 16:23:11;;;;;;;0.00;0.00;;;;;;;-145.06;54.41;37139.41;10481646;28;20099;-69
2023/09/06 16:28:11;;;;;;;0.05;0.05;;;;;;;-145.06;54.27;37127.31;10488711;28;20036;-70
2023/09/06 16:33:12;;;;;;;0.00;0.00;;;;;;;-145.06;55.86;37197.91;10489664;28;20432;-69
2023/09/06 16:38:12;;;;;;;0.00;0.00;;;;;;;-145.06;55.56;37244.28;10476347;28;20047;-69
2023/09/06 16:43:12;;;;;;;0.00;0.00;;;;;;;-145.06;57.92;37250.34;10487861;28;20020;-69
2023/09/06 16:48:12;;;;;;;0.10;0.10;;;;;;;-145.06;57.37;37316.88;10482318;28;20048;-69
2023/09/06 16:53:13;;;;;;;0.00;0.00;;;;;;;-145.06;56.79;37357.22;10484974;28;20017;-68
2023/09/06 16:58:13;;;;;;;0.00;0.00;;;;;;;-145.06;57.12;37405.63;10493436;28;20037;-67
2023/09/06 17:03:14;;;;;;;0.00;0.00;;;;;;;-145.06;58.42;37425.78;10468739;28;20024;-67
2023/09/06 17:08:14;;;;;;;0.00;0.00;;;;;;;-145.06;58.59;37498.38;10487548;28;20401;-66
2023/09/06 17:13:14;;;;;;;0.00;0.00;;;;;;;-145.06;60.10;37562.91;10476817;28;20263;-67
2023/09/06 17:18:15;;;;;;;0.00;0.00;;;;;;;-145.06;61.75;37639.56;10474009;28;20043;-67
2023/09/06 17:23:16;;;;;;;0.00;0.00;;;;;;;-145.06;63.09;37683.94;10482628;28;20024;-66
2023/09/06 17:28:16;;;;;;;0.00;0.00;;;;;;;-145.06;63.45;37716.19;10483465;28;20396;-68
2023/09/06 17:33:18;;;;;;;0.10;0.10;;;;;;;-145.06;62.83;37790.81;10480530;28;20235;-69
2023/09/06 17:38:18;;;;;;;0.05;0.05;;;;;;;-145.06;62.92;37901.75;10485656;28;20389;-68
2023/09/06 17:43:23;;;;;;;0.00;0.00;;;;;;;-145.06;64.64;37921.94;10481978;28;20013;-68
2023/09/06 17:48:25;;;;;;;0.10;0.10;;;;;;;-145.06;65.07;38051.00;10468764;28;20376;-68
2023/09/06 17:53:27;;;;;;;0.10;0.10;;;;;;;-145.06;64.86;38109.50;10489402;28;20028;-68
2023/09/06 17:58:28;;;;;;;0.00;0.00;;;;;;;-145.06;65.23;38145.81;10482894;28;20025;-68
2023/09/06 18:03:30;;;;;;;0.05;0.05;;;;;;;-145.06;66.57;38226.50;10478321;28;20029;-68
2023/09/06 18:08:31;;;;;;;0.00;0.00;;;;;;;-145.06;70.57;38325.34;10472967;28;20495;-68
2023/09/06 18:13:31;;;;;;;0.00;0.00;;;;;;;-145.06;72.85;38402.00;10484216;28;20024;-69
2023/09/06 18:18:33;;;;;;;0.00;0.00;;;;;;;-145.06;71.65;38486.72;10482219;28;20021;-67
2023/09/06 18:23:35;;;;;;;0.00;0.00;;;;;;;-145.06;70.74;38537.16;10480302;28;21416;-68
2023/09/06 18:28:35;;;;;;;0.00;0.00;;;;;;;-145.06;72.26;38504.88;10477460;28;20543;-68
2023/09/06 18:33:36;;;;;;;0.00;0.00;;;;;;;-145.06;72.74;38597.66;10467266;28;20131;-68
2023/09/06 18:38:37;;;;;;;0.00;0.00;;;;;;;-145.06;75.14;38627.94;10482691;28;20492;-68
2023/09/06 18:43:38;;;;;;;0.00;0.00;;;;;;;-145.06;77.09;38722.75;10474319;28;20504;-67
2023/09/06 18:48:38;;;;;;;0.00;0.00;;;;;;;-145.06;78.74;38765.13;10484939;28;20024;-69
2023/09/06 18:53:41;;;;;;;0.10;0.10;;;;;;;-145.06;80.92;38807.47;10453202;28;20111;-68
2023/09/06 18:58:42;;;;;;;0.00;0.00;;;;;;;-145.06;83.14;38874.06;10473111;28;20025;-67
2023/09/06 19:03:43;;;;;;;0.00;0.00;;;;;;;-145.06;85.01;38908.34;10471091;28;20028;-67
2023/09/06 19:08:43;;;;;;;0.00;0.00;;;;;;;-145.06;86.73;38974.94;10447834;28;20505;-68
2023/09/06 19:13:43;;;;;;;0.00;0.00;;;;;;;-145.06;88.34;38997.13;10468009;28;20021;-69
2023/09/06 19:18:44;;;;;;;0.00;0.00;;;;;;;-145.06;91.68;39095.97;10461148;28;20032;-69
2023/09/06 19:23:44;;;;;;;0.00;0.00;;;;;;;-145.06;95.66;39194.84;10466714;28;20104;-69
2023/09/06 19:28:45;;;;;;;0.00;0.00;;;;;;;-145.06;97.10;39229.13;10477394;28;20021;-68
2023/09/06 19:33:45;;;;;;;0.00;0.00;;;;;;;-145.06;100.00;39194.84;10476982;28;20206;-68
2023/09/06 19:38:45;;;;;;;0.00;0.00;;;;;;;-145.06;100.00;39160.53;10469083;28;20052;-70
2023/09/06 19:43:46;;;;;;;0.00;0.00;;;;;;;-145.06;100.00;39136.34;10475028;28;20419;-67
2023/09/06 19:48:46;;;;;;;0.08;0.08;;;;;;;-145.06;100.00;39124.22;10476922;28;20481;-67
2023/09/06 19:53:47;;;;;;;0.00;0.00;;;;;;;-145.06;100.00;39085.91;10473695;28;20470;-68
2023/09/06 19:58:47;;;;;;;0.10;0.10;;;;;;;-145.06;100.00;39114.13;10463175;28;20397;-68
2023/09/06 20:03:47;;;;;;;0.00;0.00;;;;;;;-145.06;100.00;39136.34;10470503;28;20020;-68
2023/09/06 20:08:47;;;;;;;0.00;0.00;;;;;;;-145.06;100.00;39188.78;10480677;28;20052;-67
2023/09/06 20:13:49;;;;;;;0.10;0.10;;;;;;;-145.06;100.00;39227.13;10480751;28;20497;-68
2023/09/06 20:18:49;;;;;;;0.00;0.00;;;;;;;-145.06;100.00;39219.06;10481043;28;20024;-68
2023/09/06 20:23:50;;;;;;;0.00;0.00;;;;;;;-145.06;100.00;39217.03;10463754;28;20025;-69
2023/09/06 20:28:50;;;;;;;0.10;0.10;;;;;;;-145.06;100.00;39235.19;10450978;28;20032;-68
2023/09/06 20:33:51;;;;;;;0.00;0.00;;;;;;;-145.06;100.00;39261.44;10472477;28;20425;-68
2023/09/06 20:38:51;;;;;;;0.00;0.00;;;;;;;-145.06;100.00;39271.50;10471132;28;20104;-68
2023/09/06 20:43:51;;;;;;;0.00;0.00;;;;;;;-145.06;100.00;39273.53;10478142;28;20060;-68
2023/09/06 20:48:51;;;;;;;0.00;0.00;;;;;;;-145.06;100.00;39321.97;10464592;28;20468;-69
2023/09/06 20:53:52;;;;;;;0.00;0.00;;;;;;;-145.06;100.00;39352.22;10475988;28;20035;-68
2023/09/06 20:58:52;;;;;;;0.10;0.10;;;;;;;-145.06;100.00;39384.50;10490112;28;20075;-69
2023/09/06 21:03:52;;;;;;;0.00;0.00;;;;;;;-145.06;100.00;39376.44;10477503;28;20020;-68
2023/09/06 21:08:53;;;;;;;0.00;0.00;;;;;;;-145.06;100.00;39364.31;10483705;28;20021;-68
2023/09/06 21:13:53;;;;;;;0.00;0.00;;;;;;;-145.06;100.00;39400.66;10484021;28;20030;-68
2023/09/06 21:18:53;;;;;;;0.00;0.00;;;;;;;-145.06;100.00;39426.88;10491245;28;20020;-69
2023/09/06 21:23:54;;;;;;;0.10;0.10;;;;;;;-145.06;100.00;39438.97;10439526;22;20067;-63
2023/09/06 21:28:55;;;;;;;0.00;0.00;;;;;;;-145.06;100.00;39473.28;10415789;28;21570;-63
2023/09/06 21:33:56;;;;;;;0.00;0.00;;;;;;;-145.06;100.00;39467.22;10423357;28;20048;-63
2023/09/06 21:38:56;;;;;;;0.00;0.00;;;;;;;-145.06;100.00;39455.13;10433784;28;20033;-63
2023/09/06 21:44:00;;;;;;;0.00;0.00;;;;;;;-145.06;100.00;39517.69;10435253;28;20017;-63
2023/09/06 21:49:00;;;;;;;0.00;0.00;;;;;;;-145.06;100.00;39549.97;10434088;28;20036;-63
2023/09/06 21:54:00;;;;;;;0.10;0.10;;;;;;;-145.06;100.00;39539.88;10433515;28;20469;-63
2023/09/06 21:59:02;;;;;;;0.10;0.10;;;;;;;-145.06;100.00;39531.81;10436705;28;20563;-63
2023/09/06 22:04:03;;;;;;;0.00;0.00;;;;;;;-145.06;100.00;39537.84;10438669;28;20435;-63
2023/09/06 22:09:03;;;;;;;0.10;0.10;;;;;;;-145.06;100.00;39554.00;10430785;28;20025;-62
2023/09/06 22:14:04;;;;;;;0.03;0.03;;;;;;;-145.06;100.00;39590.31;10421450;28;20359;-64
2023/09/06 22:19:04;;;;;;;0.10;0.10;;;;;;;-145.06;100.00;39586.28;10414366;28;20047;-63
2023/09/06 22:24:05;;;;;;;0.00;0.00;;;;;;;-145.06;100.00;39608.47;10434464;28;20047;-63
2023/09/06 22:29:05;;;;;;;0.00;0.00;;;;;;;-145.06;100.00;39616.56;10429132;28;20246;-63
2023/09/06 22:34:08;;;;;;;0.00;0.00;;;;;;;-145.06;100.00;39646.81;10434845;28;20009;-66
2023/09/06 22:39:09;;;;;;;0.10;0.10;;;;;;;-145.06;100.00;39648.84;10432717;28;20094;-64
2023/09/06 22:44:09;;;;;;;0.10;0.10;;;;;;;-145.06;100.00;39652.88;10438218;28;20025;-64